Time;durP1;ratioP1;P1;durP2;ratioP2;P2;SDS_P1;SDS_P2;PMS_P1;PMS_P2;Temp;Humidity;BMP_temperature;BMP_pressure;BME280_temperature;BME280_humidity;BME280_pressure;Samples;Min_cycle;Max_cycle;Signal;HPM_P1;HPM_P2
2021/12/06 00:02:41;;;;;;;;;;;;;;;5.79;69.87;98766.41;4413674;32;34098;-95
2021/12/06 00:05:31;;;;;;;;;;;;;;;5.31;71.53;98770.91;4399177;32;31904;-94
2021/12/06 00:08:11;;;;;;;;;;;;;;;5.61;70.86;98775.88;4374996;32;33036;-95
2021/12/06 00:11:09;;;;;;;;;;;;;;;5.73;70.65;98785.84;4388852;32;34800;-94
2021/12/06 00:14:01;;;;;;;;;;;;;;;5.74;70.45;98784.94;4371681;32;33045;-96
2021/12/06 00:16:44;;;;;;;;;;;;;;;6.12;69.09;98782.53;4370837;32;32301;-96
2021/12/06 00:19:28;;;;;;;;;;;;;;;5.79;69.95;98796.09;4366922;32;32404;-96
2021/12/06 00:22:43;;;;;;;;;;;;;;;5.82;69.72;98793.34;4419113;32;32197;-95
2021/12/06 00:26:27;;;;;;;;;;;;;;;6.24;68.50;98782.03;4420418;32;35661;-96
2021/12/06 00:29:23;;;;;;;;;;;;;;;6.44;68.00;98777.69;4409444;32;34086;-96
2021/12/06 00:32:06;;;;;;;;;;;;;;;5.87;69.57;98785.28;4360055;32;32537;-96
2021/12/06 00:34:47;;;;;;;;;;;;;;;6.05;69.16;98779.31;4372790;32;33415;-95
2021/12/06 00:37:34;;;;;;;;;;;;;;;6.23;68.83;98785.56;4389889;32;32339;-93
2021/12/06 00:40:29;;;;;;;;;;;;;;;6.51;67.40;98789.66;4382747;32;32841;-92
2021/12/06 00:43:10;;;;;;;;;;;;;;;6.44;67.84;98788.19;4374932;32;33936;-92
2021/12/06 00:46:01;;;;;;;;;;;;;;;6.52;67.14;98780.84;4335941;32;33015;-90
2021/12/06 00:48:52;;;;;;;;;;;;;;;6.24;68.14;98783.81;4396509;32;33997;-93
2021/12/06 00:51:46;;;;;;;;;;;;;;;6.38;68.04;98795.41;4392112;32;33775;-94
2021/12/06 00:54:26;;;;;;;;;;;;;;;6.37;68.24;98804.19;4387094;32;32658;-93
2021/12/06 00:57:18;;;;;;;;;;;;;;;6.54;67.42;98805.22;4365257;32;32954;-94
2021/12/06 01:00:17;;;;;;;;;;;;;;;6.76;66.76;98800.75;4346930;32;33121;-95
2021/12/06 01:03:19;;;;;;;;;;;;;;;6.93;65.66;98797.37;4381937;32;33989;-95
2021/12/06 01:05:58;;;;;;;;;;;;;;;6.46;67.55;98817.81;4397136;32;33133;-95
2021/12/06 01:08:48;;;;;;;;;;;;;;;6.48;67.72;98810.75;4368088;32;32827;-95
2021/12/06 01:15:38;;;;;;;;;;;;;;;6.85;66.28;98776.75;4418212;32;32890;-95
2021/12/06 01:18:28;;;;;;;;;;;;;;;6.77;66.35;98776.22;4393956;32;32880;-93
2021/12/06 01:21:26;;;;;;;;;;;;;;;6.47;67.44;98772.34;4366933;32;33214;-93
2021/12/06 01:24:25;;;;;;;;;;;;;;;6.64;67.30;98770.66;4375550;32;32924;-93
2021/12/06 01:27:26;;;;;;;;;;;;;;;6.48;67.73;98774.87;4383755;32;32921;-94
2021/12/06 01:39:36;;;;;;;;;;;;;;;6.61;67.08;98775.22;4401545;32;34728;-94
2021/12/06 01:42:30;;;;;;;;;;;;;;;6.82;66.33;98779.50;4398859;32;34845;-95
2021/12/06 01:45:24;;;;;;;;;;;;;;;6.61;66.77;98786.53;4390377;32;34726;-95
2021/12/06 01:48:15;;;;;;;;;;;;;;;6.85;65.80;98773.28;4403878;32;32859;-95
2021/12/06 01:51:06;;;;;;;;;;;;;;;6.57;66.68;98782.34;4395898;32;31527;-96
2021/12/06 01:54:00;;;;;;;;;;;;;;;6.80;65.51;98780.50;4404905;32;35497;-96
2021/12/06 01:56:52;;;;;;;;;;;;;;;6.82;64.87;98773.41;4380859;32;32865;-95
2021/12/06 02:03:38;;;;;;;;;;;;;;;6.24;66.98;98792.50;4422144;32;34115;-94
2021/12/06 02:06:30;;;;;;;;;;;;;;;6.34;65.70;98790.34;4410574;32;32781;-92
2021/12/06 02:09:25;;;;;;;;;;;;;;;6.37;65.10;98790.25;4423993;32;33716;-92
2021/12/06 02:12:17;;;;;;;;;;;;;;;6.24;65.23;98787.28;4386118;32;33174;-94
2021/12/06 02:15:26;;;;;;;;;;;;;;;6.04;65.71;98782.03;4385325;32;33108;-92
2021/12/06 02:18:43;;;;;;;;;;;;;;;6.14;65.55;98785.97;4360649;32;32534;-94
2021/12/06 02:21:27;;;;;;;;;;;;;;;5.85;66.50;98768.78;4374998;32;32961;-94
2021/12/06 02:24:21;;;;;;;;;;;;;;;5.97;65.98;98767.44;4386792;32;34731;-91
2021/12/06 02:27:04;;;;;;;;;;;;;;;6.06;65.50;98772.31;4379707;32;32404;-93
2021/12/06 02:29:59;;;;;;;;;;;;;;;5.90;65.94;98772.94;4377858;32;35405;-93
2021/12/06 02:32:42;;;;;;;;;;;;;;;6.07;65.55;98774.00;4378148;32;32742;-91
2021/12/06 02:35:27;;;;;;;;;;;;;;;6.07;65.22;98776.63;4363801;32;33182;-91
2021/12/06 02:38:07;;;;;;;;;;;;;;;5.80;66.39;98776.84;4375483;32;32896;-92
2021/12/06 02:41:00;;;;;;;;;;;;;;;5.97;65.74;98777.94;4371573;32;34035;-90
2021/12/06 02:43:54;;;;;;;;;;;;;;;5.76;66.28;98783.13;4397397;32;34787;-92
2021/12/06 02:46:37;;;;;;;;;;;;;;;5.82;66.55;98782.84;4378302;32;32749;-91
2021/12/06 02:49:28;;;;;;;;;;;;;;;5.96;66.13;98782.31;4402456;32;31786;-92
2021/12/06 02:52:40;;;;;;;;;;;;;;;6.24;65.06;98787.28;4397882;32;33632;-91
2021/12/06 02:55:36;;;;;;;;;;;;;;;6.12;65.34;98788.66;4388555;32;33307;-91
2021/12/06 02:58:22;;;;;;;;;;;;;;;5.86;66.14;98794.91;4351989;32;32852;-91
2021/12/06 03:00:53;;;;;;;;;;;;;;;5.78;66.54;98799.59;4385091;32;33154;-91
2021/12/06 03:03:25;;;;;;;;;;;;;;;5.69;67.00;98805.22;4338625;32;33085;-90
2021/12/06 03:05:55;;;;;;;;;;;;;;;5.74;66.95;98798.03;4352183;32;33187;-90
2021/12/06 03:08:38;;;;;;;;;;;;;;;5.54;67.60;98814.53;4362506;32;33049;-90
2021/12/06 03:11:08;;;;;;;;;;;;;;;5.70;67.06;98812.19;4351998;32;32465;-94
2021/12/06 03:13:58;;;;;;;;;;;;;;;5.74;66.83;98800.62;4381206;32;33999;-92
2021/12/06 03:16:50;;;;;;;;;;;;;;;5.56;67.11;98796.16;4410046;32;33195;-95
2021/12/06 03:19:42;;;;;;;;;;;;;;;5.95;65.54;98792.88;4402492;32;33175;-93
2021/12/06 03:22:32;;;;;;;;;;;;;;;5.96;65.45;98786.72;4372939;32;32105;-92
2021/12/06 03:25:23;;;;;;;;;;;;;;;5.70;66.50;98803.44;4379144;32;32718;-90
2021/12/06 03:28:14;;;;;;;;;;;;;;;5.57;67.06;98801.31;4384331;32;33126;-91
2021/12/06 03:31:06;;;;;;;;;;;;;;;5.50;67.54;98804.22;4405589;32;32732;-90
2021/12/06 03:33:56;;;;;;;;;;;;;;;5.60;66.80;98801.22;4394900;32;32511;-91
2021/12/06 03:36:40;;;;;;;;;;;;;;;5.94;65.53;98802.50;4392153;32;32743;-90
2021/12/06 03:39:33;;;;;;;;;;;;;;;5.46;67.50;98807.88;4368723;32;32643;-91
2021/12/06 03:42:16;;;;;;;;;;;;;;;5.24;68.32;98820.94;4374630;32;34186;-92
2021/12/06 03:44:58;;;;;;;;;;;;;;;5.33;67.84;98823.22;4370981;32;32335;-92
2021/12/06 03:47:40;;;;;;;;;;;;;;;5.41;67.55;98826.38;4406571;32;33075;-91
2021/12/06 03:50:31;;;;;;;;;;;;;;;5.62;66.67;98822.09;4390263;32;33165;-93
2021/12/06 03:53:22;;;;;;;;;;;;;;;5.65;66.53;98814.97;4422112;32;33695;-94
2021/12/06 03:56:13;;;;;;;;;;;;;;;5.67;66.58;98812.28;4402856;32;31607;-93
2021/12/06 03:59:04;;;;;;;;;;;;;;;5.72;66.12;98814.72;4391393;32;33789;-94
2021/12/06 04:01:55;;;;;;;;;;;;;;;5.68;66.27;98816.59;4350089;32;33648;-94
2021/12/06 04:04:46;;;;;;;;;;;;;;;5.45;66.62;98806.19;4377977;32;32615;-95
2021/12/06 04:07:28;;;;;;;;;;;;;;;5.33;67.52;98820.59;4382756;32;33075;-94
2021/12/06 04:10:25;;;;;;;;;;;;;;;5.44;66.75;98815.78;4403682;32;34612;-96
2021/12/06 04:13:07;;;;;;;;;;;;;;;5.17;67.29;98814.22;4415036;32;34142;-95
2021/12/06 04:15:49;;;;;;;;;;;;;;;5.29;67.49;98805.94;4382810;32;32769;-95
2021/12/06 04:18:40;;;;;;;;;;;;;;;5.20;67.63;98806.28;4365887;32;31940;-93
2021/12/06 04:21:23;;;;;;;;;;;;;;;5.56;66.39;98802.25;4383034;32;33087;-93
2021/12/06 04:24:16;;;;;;;;;;;;;;;5.38;67.06;98819.50;4398841;32;34856;-93
2021/12/06 04:27:00;;;;;;;;;;;;;;;5.40;67.14;98817.66;4356669;32;32897;-94
2021/12/06 04:29:46;;;;;;;;;;;;;;;5.66;66.12;98818.44;4376078;32;32321;-95
2021/12/06 04:32:29;;;;;;;;;;;;;;;5.22;67.32;98828.88;4378691;32;32778;-92
2021/12/06 04:35:11;;;;;;;;;;;;;;;5.13;67.56;98826.59;4401576;32;33301;-93
2021/12/06 04:37:54;;;;;;;;;;;;;;;5.32;66.87;98829.38;4425335;32;33896;-94
2021/12/06 04:40:36;;;;;;;;;;;;;;;5.24;67.00;98834.87;4422608;32;33173;-92
2021/12/06 04:43:18;;;;;;;;;;;;;;;5.06;67.69;98825.09;4415626;32;33131;-91
2021/12/06 04:46:00;;;;;;;;;;;;;;;5.43;66.47;98821.09;4357730;32;33253;-91
2021/12/06 04:48:42;;;;;;;;;;;;;;;5.23;67.20;98827.94;4401059;32;33063;-91
2021/12/06 04:51:24;;;;;;;;;;;;;;;5.13;67.65;98837.91;4387105;32;33374;-94
2021/12/06 04:54:16;;;;;;;;;;;;;;;5.02;67.51;98836.59;4370639;32;32550;-95
2021/12/06 04:57:13;;;;;;;;;;;;;;;5.25;66.79;98840.97;4419934;32;33807;-96
2021/12/06 05:00:16;;;;;;;;;;;;;;;5.05;67.44;98839.94;4405160;32;33408;-91
2021/12/06 05:02:59;;;;;;;;;;;;;;;4.97;68.19;98841.13;4403670;32;33003;-91
2021/12/06 05:05:53;;;;;;;;;;;;;;;4.94;68.19;98859.53;4400415;32;32951;-90
2021/12/06 05:08:54;;;;;;;;;;;;;;;4.96;68.20;98860.34;4392141;32;34415;-93
2021/12/06 05:11:48;;;;;;;;;;;;;;;5.10;67.38;98858.09;4399267;32;34045;-95
2021/12/06 05:14:30;;;;;;;;;;;;;;;5.19;66.90;98867.38;4393910;32;31936;-92
2021/12/06 05:17:22;;;;;;;;;;;;;;;5.44;66.31;98867.31;4413001;32;33913;-93
2021/12/06 05:20:14;;;;;;;;;;;;;;;5.15;67.34;98866.63;4379769;32;32530;-95
2021/12/06 05:23:08;;;;;;;;;;;;;;;4.92;68.01;98874.44;4429593;32;34594;-96
2021/12/06 05:25:59;;;;;;;;;;;;;;;5.08;67.92;98881.72;4363865;32;31883;-95
2021/12/06 05:28:56;;;;;;;;;;;;;;;5.04;67.93;98882.72;4439470;32;33548;-93
2021/12/06 05:31:55;;;;;;;;;;;;;;;5.18;67.44;98884.84;4438513;32;33952;-95
2021/12/06 05:34:48;;;;;;;;;;;;;;;5.18;67.64;98882.22;4383996;32;32712;-94
2021/12/06 05:37:27;;;;;;;;;;;;;;;5.37;66.91;98875.41;4374896;32;33155;-92
2021/12/06 05:40:11;;;;;;;;;;;;;;;5.33;67.06;98871.19;4392975;32;33387;-93
2021/12/06 05:43:04;;;;;;;;;;;;;;;5.49;66.71;98879.31;4403263;32;32847;-96
2021/12/06 05:45:49;;;;;;;;;;;;;;;5.62;66.37;98877.94;4374224;32;32648;-96
2021/12/06 05:48:31;;;;;;;;;;;;;;;5.63;66.25;98879.63;4416384;32;31801;-96
2021/12/06 05:51:23;;;;;;;;;;;;;;;5.64;66.21;98872.63;4440845;32;32375;-95
2021/12/06 05:54:02;;;;;;;;;;;;;;;5.57;66.33;98879.03;4368334;32;33038;-93
2021/12/06 06:00:48;;;;;;;;;;;;;;;5.89;65.07;98878.66;4367222;32;34193;-92
2021/12/06 06:03:37;;;;;;;;;;;;;;;5.75;65.80;98883.56;4394466;32;35494;-91
2021/12/06 06:06:50;;;;;;;;;;;;;;;5.53;66.37;98891.38;4385274;32;33738;-91
2021/12/06 06:09:38;;;;;;;;;;;;;;;5.61;66.29;98896.34;4428015;32;32720;-91
2021/12/06 06:12:42;;;;;;;;;;;;;;;5.47;66.37;98914.34;4400088;32;31655;-90
2021/12/06 06:15:36;;;;;;;;;;;;;;;5.34;66.81;98930.47;4406679;32;33416;-92
2021/12/06 06:18:39;;;;;;;;;;;;;;;5.55;66.61;98917.50;4431117;32;34759;-91
2021/12/06 06:21:35;;;;;;;;;;;;;;;5.55;66.23;98920.97;4388109;32;32455;-93
2021/12/06 06:24:04;;;;;;;;;;;;;;;5.56;66.18;98920.09;4381738;32;32684;-95
2021/12/06 06:26:55;;;;;;;;;;;;;;;5.47;66.60;98927.44;4425857;32;33827;-95
2021/12/06 06:29:35;;;;;;;;;;;;;;;5.45;66.67;98924.00;4379418;32;32598;-94
2021/12/06 06:32:25;;;;;;;;;;;;;;;5.39;67.01;98925.94;4399707;32;32641;-94
2021/12/06 06:35:05;;;;;;;;;;;;;;;5.54;66.58;98926.28;4384816;32;32041;-95
2021/12/06 06:37:58;;;;;;;;;;;;;;;5.14;67.43;98932.97;4409326;32;32684;-95
2021/12/06 06:40:39;;;;;;;;;;;;;;;5.32;67.21;98937.53;4399951;32;32841;-96
2021/12/06 06:43:30;;;;;;;;;;;;;;;5.35;67.25;98944.41;4412120;32;32374;-94
2021/12/06 06:46:09;;;;;;;;;;;;;;;5.51;66.86;98952.59;4381287;32;32392;-94
2021/12/06 06:49:00;;;;;;;;;;;;;;;5.09;68.40;98956.69;4374671;32;32651;-93
2021/12/06 06:51:40;;;;;;;;;;;;;;;5.44;66.68;98966.78;4376126;32;33285;-94
2021/12/06 06:54:30;;;;;;;;;;;;;;;5.56;66.21;98966.38;4392133;32;33096;-94
2021/12/06 06:57:10;;;;;;;;;;;;;;;5.18;67.94;98973.81;4394348;32;32383;-95
2021/12/06 07:00:00;;;;;;;;;;;;;;;5.41;67.13;98978.22;4351727;32;32364;-96
2021/12/06 07:02:40;;;;;;;;;;;;;;;5.46;66.94;98984.19;4378136;32;33236;-95
2021/12/06 07:05:31;;;;;;;;;;;;;;;5.71;65.94;98986.75;4397305;32;33753;-96
2021/12/06 07:08:10;;;;;;;;;;;;;;;5.11;68.05;98993.25;4424355;32;32063;-96
2021/12/06 07:11:02;;;;;;;;;;;;;;;5.34;67.49;98989.84;4391298;32;33043;-96
2021/12/06 07:13:43;;;;;;;;;;;;;;;5.62;66.36;98998.41;4409956;32;32865;-94
2021/12/06 07:16:37;;;;;;;;;;;;;;;5.74;65.97;99002.31;4406516;32;34641;-95
2021/12/06 07:19:19;;;;;;;;;;;;;;;5.65;66.56;99003.53;4415345;32;32228;-96
2021/12/06 07:22:12;;;;;;;;;;;;;;;5.55;66.66;99007.38;4378413;32;33223;-94
2021/12/06 07:24:50;;;;;;;;;;;;;;;5.28;67.89;99009.22;4394838;32;32859;-93
2021/12/06 07:27:41;;;;;;;;;;;;;;;5.08;68.47;99011.66;4371227;32;32574;-93
2021/12/06 07:30:21;;;;;;;;;;;;;;;5.46;67.39;99012.09;4386882;32;32528;-92
2021/12/06 07:33:11;;;;;;;;;;;;;;;5.44;67.38;99013.91;4417035;32;32733;-92
2021/12/06 07:35:51;;;;;;;;;;;;;;;5.31;67.60;99014.34;4399159;32;34227;-95
2021/12/06 07:38:33;;;;;;;;;;;;;;;5.57;67.07;99016.06;4369907;32;29991;-94
2021/12/06 07:41:21;;;;;;;;;;;;;;;5.63;66.94;99020.22;4400183;32;32254;-87
2021/12/06 07:43:49;;;;;;;;;;;;;;;5.72;66.48;99019.88;4400769;32;33399;-88
2021/12/06 07:46:17;;;;;;;;;;;;;;;5.66;67.14;99025.34;4394484;32;32956;-89
2021/12/06 07:48:45;;;;;;;;;;;;;;;5.79;66.52;99020.50;4390793;32;33449;-89
2021/12/06 07:51:13;;;;;;;;;;;;;;;5.63;67.19;99026.31;4394508;32;33255;-89
2021/12/06 07:53:42;;;;;;;;;;;;;;;5.64;66.81;99024.53;4396078;32;33346;-90
2021/12/06 07:56:10;;;;;;;;;;;;;;;5.93;65.81;99030.50;4395301;32;33372;-90
2021/12/06 07:58:38;;;;;;;;;;;;;;;5.56;67.41;99026.59;4393813;32;33471;-90
2021/12/06 08:01:05;;;;;;;;;;;;;;;5.51;67.24;99023.28;4382271;32;32551;-90
2021/12/06 08:03:39;;;;;;;;;;;;;;;5.60;67.33;99017.69;4382493;32;34606;-90
2021/12/06 08:06:42;;;;;;;;;;;;;;;5.68;67.03;99026.13;4318719;32;34665;-89
2021/12/06 08:09:14;;;;;;;;;;;;;;;5.60;67.21;99025.53;4368771;32;34130;-89
2021/12/06 08:11:50;;;;;;;;;;;;;;;5.65;67.11;99023.66;4363935;32;32442;-90
2021/12/06 08:14:19;;;;;;;;;;;;;;;5.58;67.37;99027.38;4370991;32;32876;-89
2021/12/06 08:16:47;;;;;;;;;;;;;;;5.08;68.92;99029.97;4374173;32;34007;-90
2021/12/06 08:19:15;;;;;;;;;;;;;;;5.28;68.59;99027.56;4361376;32;33772;-90
2021/12/06 08:21:45;;;;;;;;;;;;;;;5.21;69.18;99033.87;4360938;32;32466;-90
2021/12/06 08:24:13;;;;;;;;;;;;;;;5.07;69.44;99034.34;4356290;32;32757;-90
2021/12/06 08:26:41;;;;;;;;;;;;;;;5.24;69.17;99032.94;4370605;32;33883;-90
2021/12/06 08:29:11;;;;;;;;;;;;;;;5.37;68.00;99040.31;4372243;32;34676;-89
2021/12/06 08:31:41;;;;;;;;;;;;;;;5.36;68.44;99045.59;4395459;32;32825;-91
2021/12/06 08:34:09;;;;;;;;;;;;;;;5.32;68.68;99057.97;4393815;32;33746;-89
2021/12/06 08:36:36;;;;;;;;;;;;;;;5.29;69.21;99058.06;4379774;32;33115;-89
2021/12/06 08:39:05;;;;;;;;;;;;;;;5.47;68.60;99058.34;4385421;32;32854;-90
2021/12/06 08:41:33;;;;;;;;;;;;;;;5.30;68.31;99064.13;4371214;32;32511;-90
2021/12/06 08:44:03;;;;;;;;;;;;;;;5.38;68.50;99068.22;4382890;32;33812;-90
2021/12/06 08:46:36;;;;;;;;;;;;;;;5.26;69.32;99067.75;4384421;32;33561;-90
2021/12/06 08:49:05;;;;;;;;;;;;;;;5.11;69.44;99069.13;4371177;32;33133;-90
2021/12/06 08:51:36;;;;;;;;;;;;;;;4.79;70.97;99076.25;4382702;32;32771;-91
2021/12/06 08:54:05;;;;;;;;;;;;;;;5.02;70.32;99069.44;4372421;32;33243;-91
2021/12/06 08:56:37;;;;;;;;;;;;;;;4.80;70.49;99072.75;4371025;32;34702;-90
2021/12/06 08:59:06;;;;;;;;;;;;;;;4.83;71.11;99075.25;4392357;32;33834;-89
2021/12/06 09:01:34;;;;;;;;;;;;;;;5.22;70.06;99072.28;4383115;32;33256;-90
2021/12/06 09:04:22;;;;;;;;;;;;;;;5.16;69.87;99071.59;4378487;32;32984;-90
2021/12/06 09:06:51;;;;;;;;;;;;;;;4.65;71.73;99070.59;4372892;32;34437;-89
2021/12/06 09:09:21;;;;;;;;;;;;;;;5.16;70.10;99072.44;4387621;32;32907;-89
2021/12/06 09:11:49;;;;;;;;;;;;;;;4.97;70.74;99076.59;4382989;32;32309;-89
2021/12/06 09:14:16;;;;;;;;;;;;;;;5.23;70.12;99066.13;4372339;32;33862;-89
2021/12/06 09:16:44;;;;;;;;;;;;;;;5.12;70.31;99071.69;4385050;32;33449;-90
2021/12/06 09:19:13;;;;;;;;;;;;;;;4.90;71.36;99068.09;4384857;32;33402;-89
2021/12/06 09:21:43;;;;;;;;;;;;;;;5.28;69.88;99064.19;4392194;32;32910;-90
2021/12/06 09:24:13;;;;;;;;;;;;;;;5.42;68.95;99055.03;4386364;32;33353;-89
2021/12/06 09:26:41;;;;;;;;;;;;;;;5.32;69.84;99047.50;4399477;32;33059;-89
2021/12/06 09:29:09;;;;;;;;;;;;;;;5.33;70.35;99048.34;4392025;32;33553;-89
2021/12/06 09:31:36;;;;;;;;;;;;;;;5.45;69.53;99036.56;4374869;32;32394;-89
2021/12/06 09:34:04;;;;;;;;;;;;;;;5.75;68.07;99035.50;4388331;32;33873;-89
2021/12/06 09:36:33;;;;;;;;;;;;;;;5.69;68.23;99030.47;4384882;32;33340;-89
2021/12/06 09:39:01;;;;;;;;;;;;;;;5.33;69.81;99033.47;4387347;32;33059;-89
2021/12/06 09:41:30;;;;;;;;;;;;;;;5.06;71.53;99035.28;4396024;32;33323;-89
2021/12/06 09:43:59;;;;;;;;;;;;;;;5.36;70.29;99038.63;4386225;32;33087;-89
2021/12/06 09:46:28;;;;;;;;;;;;;;;5.16;71.38;99040.19;4397368;32;33462;-89
2021/12/06 09:48:56;;;;;;;;;;;;;;;5.05;71.85;99038.81;4395470;32;33911;-87
2021/12/06 09:51:25;;;;;;;;;;;;;;;5.21;71.13;99038.28;4391658;32;32118;-89
2021/12/06 09:53:54;;;;;;;;;;;;;;;5.51;70.17;99041.63;4396003;32;32770;-89
2021/12/06 09:56:25;;;;;;;;;;;;;;;5.55;69.92;99037.94;4387423;32;34995;-89
2021/12/06 09:58:53;;;;;;;;;;;;;;;5.64;69.94;99035.84;4396810;32;33784;-89
2021/12/06 10:01:24;;;;;;;;;;;;;;;5.68;69.46;99034.00;4396223;32;33313;-89
2021/12/06 10:03:54;;;;;;;;;;;;;;;5.71;69.69;99028.66;4389430;32;32895;-89
2021/12/06 10:06:22;;;;;;;;;;;;;;;5.94;67.88;99012.13;4370148;32;33905;-89
2021/12/06 10:08:50;;;;;;;;;;;;;;;5.80;69.18;99012.59;4374284;32;33167;-89
2021/12/06 10:11:18;;;;;;;;;;;;;;;6.02;68.52;99003.97;4374345;32;33432;-89
2021/12/06 10:13:46;;;;;;;;;;;;;;;6.27;67.10;99002.13;4375964;32;33178;-89
2021/12/06 10:16:14;;;;;;;;;;;;;;;5.78;68.80;99011.78;4385844;32;33648;-89
2021/12/06 10:18:42;;;;;;;;;;;;;;;5.76;69.49;99016.25;4386181;32;33986;-89
2021/12/06 10:21:09;;;;;;;;;;;;;;;5.77;69.44;99014.47;4383738;32;31441;-89
2021/12/06 10:23:38;;;;;;;;;;;;;;;5.88;68.61;99010.53;4372903;32;34742;-89
2021/12/06 10:26:08;;;;;;;;;;;;;;;5.61;70.31;99008.94;4392574;32;34754;-89
2021/12/06 10:28:48;;;;;;;;;;;;;;;5.64;69.91;99006.19;4385642;32;34197;-89
2021/12/06 10:31:16;;;;;;;;;;;;;;;5.99;69.28;99006.72;4383883;32;33390;-89
2021/12/06 10:33:45;;;;;;;;;;;;;;;5.62;70.19;99002.78;4384308;32;32760;-89
2021/12/06 10:36:15;;;;;;;;;;;;;;;5.96;69.50;99004.19;4384268;32;33354;-88
2021/12/06 10:38:51;;;;;;;;;;;;;;;6.18;68.64;99012.97;4394002;32;33948;-89
2021/12/06 10:41:19;;;;;;;;;;;;;;;6.15;68.62;99023.56;4392100;32;32616;-89
2021/12/06 10:43:55;;;;;;;;;;;;;;;6.14;68.46;99037.56;4381656;32;33104;-89
2021/12/06 10:46:22;;;;;;;;;;;;;;;5.80;69.58;99059.75;4392819;32;33906;-89
2021/12/06 10:48:51;;;;;;;;;;;;;;;6.09;68.30;99081.47;4400521;32;34217;-89
2021/12/06 10:51:19;;;;;;;;;;;;;;;6.37;66.58;99082.12;4381506;32;32893;-89
2021/12/06 10:54:08;;;;;;;;;;;;;;;5.59;69.99;99092.78;4395832;32;35723;-89
2021/12/06 10:56:42;;;;;;;;;;;;;;;6.45;66.86;99083.59;4379476;32;33055;-89
2021/12/06 10:59:11;;;;;;;;;;;;;;;6.14;66.97;99090.00;4403524;32;34182;-89
2021/12/06 11:01:39;;;;;;;;;;;;;;;6.19;66.64;99093.31;4401472;32;33418;-89
2021/12/06 11:04:25;;;;;;;;;;;;;;;6.02;66.94;99090.44;4406039;32;34096;-89
2021/12/06 11:06:54;;;;;;;;;;;;;;;5.80;67.94;99087.72;4393371;32;34474;-89
2021/12/06 11:09:26;;;;;;;;;;;;;;;5.84;67.63;99087.56;4380701;32;33437;-89
2021/12/06 11:11:57;;;;;;;;;;;;;;;5.63;68.18;99083.91;4403122;32;32481;-89
2021/12/06 11:14:48;;;;;;;;;;;;;;;5.68;68.96;99078.53;4381461;32;32718;-89
2021/12/06 11:17:18;;;;;;;;;;;;;;;5.83;68.75;99085.81;4395469;32;33308;-96
2021/12/06 11:19:57;;;;;;;;;;;;;;;5.96;68.35;99085.44;4379855;32;33340;-95
2021/12/06 11:27:02;;;;;;;;;;;;;;;6.24;67.83;99101.00;4381072;32;35128;-96
2021/12/06 11:29:49;;;;;;;;;;;;;;;6.19;67.65;99102.94;4388103;32;32731;-87
2021/12/06 11:32:21;;;;;;;;;;;;;;;6.56;66.87;99107.66;4371234;32;33909;-88
2021/12/06 11:34:53;;;;;;;;;;;;;;;6.65;65.85;99116.03;4357596;32;35051;-88
2021/12/06 11:37:29;;;;;;;;;;;;;;;6.32;67.53;99110.28;4366222;32;33499;-88
2021/12/06 11:39:59;;;;;;;;;;;;;;;6.79;65.75;99105.00;4365440;32;34242;-88
2021/12/06 11:42:28;;;;;;;;;;;;;;;6.53;66.96;99107.75;4383602;32;32761;-88
2021/12/06 11:44:56;;;;;;;;;;;;;;;6.09;69.02;99112.91;4359394;32;31961;-88
2021/12/06 11:47:23;;;;;;;;;;;;;;;6.30;67.99;99112.09;4357103;32;33043;-87
2021/12/06 11:49:53;;;;;;;;;;;;;;;6.26;68.03;99104.41;4365581;32;33978;-88
2021/12/06 11:52:24;;;;;;;;;;;;;;;6.45;67.73;99107.19;4372996;32;33752;-87
2021/12/06 11:54:57;;;;;;;;;;;;;;;6.72;66.89;99107.91;4357169;32;32956;-87
2021/12/06 11:57:27;;;;;;;;;;;;;;;6.91;65.67;99106.25;4375809;32;34539;-87
2021/12/06 12:00:07;;;;;;;;;;;;;;;6.74;66.81;99106.94;4366848;32;34405;-87
2021/12/06 12:02:37;;;;;;;;;;;;;;;6.44;67.62;99113.34;4375826;32;34225;-87
2021/12/06 12:05:08;;;;;;;;;;;;;;;6.67;66.39;99115.97;4379535;32;34119;-87
2021/12/06 12:07:55;;;;;;;;;;;;;;;6.68;66.36;99117.66;4374389;32;34822;-87
2021/12/06 12:10:29;;;;;;;;;;;;;;;6.58;67.10;99116.31;4377645;32;32757;-87
2021/12/06 12:13:01;;;;;;;;;;;;;;;6.70;66.68;99107.97;4382134;32;33449;-87
2021/12/06 12:15:28;;;;;;;;;;;;;;;6.39;67.83;99111.75;4362452;32;32200;-87
2021/12/06 12:17:56;;;;;;;;;;;;;;;6.91;65.41;99098.41;4375734;32;33926;-87
2021/12/06 12:20:44;;;;;;;;;;;;;;;6.71;65.80;99096.56;4374052;32;33434;-88
2021/12/06 12:23:12;;;;;;;;;;;;;;;6.99;65.25;99091.06;4363480;32;33028;-87
2021/12/06 12:25:46;;;;;;;;;;;;;;;7.22;64.06;99090.16;4376820;32;32919;-87
2021/12/06 12:30:42;;;;;;;;;;;;;;;7.11;64.84;99079.22;4387136;32;32989;-87
2021/12/06 12:33:09;;;;;;;;;;;;;;;6.66;67.01;99083.62;4387236;32;32884;-87
2021/12/06 12:35:40;;;;;;;;;;;;;;;6.79;66.17;99084.00;4372021;32;32881;-88
2021/12/06 12:38:08;;;;;;;;;;;;;;;6.99;64.98;99084.97;4365460;32;32880;-88
2021/12/06 12:40:40;;;;;;;;;;;;;;;7.01;64.87;99083.12;4378768;32;33510;-88
2021/12/06 12:43:17;;;;;;;;;;;;;;;6.86;65.25;99087.22;4376289;32;33679;-88
2021/12/06 12:45:45;;;;;;;;;;;;;;;6.68;65.57;99084.41;4366944;32;33634;-88
2021/12/06 12:48:12;;;;;;;;;;;;;;;6.98;64.42;99081.50;4391328;32;34080;-88
2021/12/06 12:50:40;;;;;;;;;;;;;;;6.66;65.40;99090.66;4366718;32;33506;-88
2021/12/06 12:53:14;;;;;;;;;;;;;;;6.79;65.86;99084.00;4377419;32;33993;-88
2021/12/06 12:55:44;;;;;;;;;;;;;;;6.75;66.07;99086.81;4359520;32;32216;-88
2021/12/06 12:58:14;;;;;;;;;;;;;;;6.99;64.95;99088.44;4360066;32;33295;-88
2021/12/06 13:00:52;;;;;;;;;;;;;;;6.94;64.61;99098.28;4376476;32;34363;-88
2021/12/06 13:03:33;;;;;;;;;;;;;;;6.61;66.69;99100.47;4359920;32;33171;-88
2021/12/06 13:06:14;;;;;;;;;;;;;;;6.80;65.80;99104.06;4369365;32;32112;-90
2021/12/06 13:08:41;;;;;;;;;;;;;;;6.74;66.29;99103.44;4371777;32;32815;-90
2021/12/06 13:11:09;;;;;;;;;;;;;;;6.92;65.94;99105.34;4371060;32;32842;-90
2021/12/06 13:13:44;;;;;;;;;;;;;;;7.27;63.79;99096.06;4367018;32;33653;-89
2021/12/06 13:16:42;;;;;;;;;;;;;;;7.11;64.45;99094.97;4379059;32;33205;-89
2021/12/06 13:19:20;;;;;;;;;;;;;;;7.38;62.34;99093.81;4375823;32;33621;-89
2021/12/06 13:21:58;;;;;;;;;;;;;;;7.10;63.47;99106.38;4385343;32;32606;-89
2021/12/06 13:24:46;;;;;;;;;;;;;;;6.88;64.13;99102.00;4363813;32;33341;-89
2021/12/06 13:27:17;;;;;;;;;;;;;;;6.70;64.95;99105.34;4364185;32;32312;-90
2021/12/06 13:29:49;;;;;;;;;;;;;;;6.98;64.21;99107.75;4380303;32;33925;-89
2021/12/06 13:32:30;;;;;;;;;;;;;;;7.02;64.35;99111.94;4371914;32;33913;-89
2021/12/06 13:35:16;;;;;;;;;;;;;;;7.23;63.81;99107.59;4368673;32;34693;-89
2021/12/06 13:38:03;;;;;;;;;;;;;;;6.44;66.94;99106.34;4385852;32;31262;-89
2021/12/06 13:40:31;;;;;;;;;;;;;;;7.05;63.35;99117.06;4388352;32;34194;-89
2021/12/06 13:43:26;;;;;;;;;;;;;;;6.87;63.77;99115.16;4362172;32;33605;-89
2021/12/06 13:45:55;;;;;;;;;;;;;;;6.83;63.54;99116.19;4365418;32;33140;-89
2021/12/06 13:48:24;;;;;;;;;;;;;;;6.68;64.14;99118.50;4364738;32;32622;-89
2021/12/06 13:50:52;;;;;;;;;;;;;;;6.77;63.89;99117.31;4391395;32;32884;-89
2021/12/06 13:53:26;;;;;;;;;;;;;;;6.84;64.25;99124.03;4370594;32;34843;-89
2021/12/06 13:55:54;;;;;;;;;;;;;;;6.97;63.73;99124.37;4385721;32;33805;-89
2021/12/06 13:58:22;;;;;;;;;;;;;;;7.09;62.49;99120.44;4366091;32;32499;-82
2021/12/06 14:00:49;;;;;;;;;;;;;;;7.00;63.50;99123.44;4381937;32;33388;-86
2021/12/06 14:03:18;;;;;;;;;;;;;;;7.08;62.33;99121.34;4377557;32;34905;-83
2021/12/06 14:05:50;;;;;;;;;;;;;;;7.08;62.83;99135.34;4379888;32;33850;-84
2021/12/06 14:08:21;;;;;;;;;;;;;;;7.07;62.52;99130.97;4383777;32;32227;-84
2021/12/06 14:10:51;;;;;;;;;;;;;;;7.25;62.18;99139.87;4366047;32;33521;-84
2021/12/06 14:13:18;;;;;;;;;;;;;;;6.85;62.10;99144.09;4378189;32;35053;-85
2021/12/06 14:18:15;;;;;;;;;;;;;;;6.54;63.31;99156.69;4364937;32;32275;-85
2021/12/06 14:20:50;;;;;;;;;;;;;;;6.65;62.77;99151.91;4384253;32;33813;-87
2021/12/06 14:23:21;;;;;;;;;;;;;;;6.78;61.77;99157.50;4367170;32;33876;-87
2021/12/06 14:25:55;;;;;;;;;;;;;;;6.51;62.78;99159.44;4377948;32;35525;-88
2021/12/06 14:28:24;;;;;;;;;;;;;;;6.57;62.75;99167.06;4364510;32;34178;-91
2021/12/06 14:31:17;;;;;;;;;;;;;;;6.67;62.56;99164.03;4346109;32;33053;-91
2021/12/06 14:34:03;;;;;;;;;;;;;;;6.48;62.92;99167.41;4384609;32;33069;-91
2021/12/06 14:36:54;;;;;;;;;;;;;;;6.37;63.32;99168.66;4389064;32;33864;-91
2021/12/06 14:39:44;;;;;;;;;;;;;;;6.67;62.12;99168.44;4321501;33;33200;-91